createdAt,value
2023-11-01T00:01:12.747Z,99794.59
2023-11-01T00:03:39.391Z,99797.94
2023-11-01T00:06:07.020Z,99795.34
2023-11-01T00:08:33.481Z,99792.69
2023-11-01T00:10:59.916Z,99795.28
2023-11-01T00:13:28.136Z,99790.09
2023-11-01T00:18:38.652Z,99789.16
2023-11-01T00:21:05.627Z,99787.53
2023-11-01T00:23:32.112Z,99785.72
2023-11-01T00:25:58.683Z,99784.81
2023-11-01T00:28:25.040Z,99790.84
2023-11-01T00:30:51.593Z,99789.13
2023-11-01T00:33:18.032Z,99789.06
2023-11-01T00:35:44.716Z,99792.44
2023-11-01T00:38:11.582Z,99796.69
2023-11-01T00:40:38.024Z,99792.38
2023-11-01T00:43:05.393Z,99801.81
2023-11-01T00:45:32.186Z,99800.03
2023-11-01T00:47:58.569Z,99798.38
2023-11-01T00:50:25.011Z,99798.44
2023-11-01T00:52:51.582Z,99801.06
2023-11-01T00:55:18.363Z,99793.28
2023-11-01T00:57:47.740Z,99790.56
2023-11-01T01:00:14.708Z,99797.44
2023-11-01T01:02:41.209Z,99792.41
2023-11-01T01:05:08.122Z,99792.34
2023-11-01T01:07:34.770Z,99794.06
2023-11-01T01:10:13.900Z,99786.25
2023-11-01T01:12:40.227Z,99787.84
2023-11-01T01:15:06.926Z,99798.28
2023-11-01T01:17:33.402Z,99789.53
2023-11-01T01:20:00.075Z,99792.94
2023-11-01T01:22:26.797Z,99800.03
2023-11-01T01:24:53.130Z,99800.88
2023-11-01T01:27:19.582Z,99799.94
2023-11-01T01:29:46.008Z,99796.50
2023-11-01T01:32:12.409Z,99787.75
2023-11-01T01:34:38.730Z,99791.22
2023-11-01T01:37:05.125Z,99793.84
2023-11-01T01:39:31.669Z,99787.84
2023-11-01T01:41:58.005Z,99791.19
2023-11-01T01:44:25.493Z,99786.81
2023-11-01T01:46:52.225Z,99791.91
2023-11-01T01:49:18.601Z,99793.75
2023-11-01T01:51:45.215Z,99787.66
2023-11-01T01:54:11.747Z,99780.72
2023-11-01T01:56:38.494Z,99786.81
2023-11-01T01:59:05.555Z,99785.91
2023-11-01T02:01:39.342Z,99782.34
2023-11-01T02:04:11.910Z,99774.69
2023-11-01T02:06:38.499Z,99779.00
2023-11-01T02:09:06.986Z,99786.00
2023-11-01T02:11:36.365Z,99793.66
2023-11-01T02:14:03.017Z,99797.03
2023-11-01T02:16:29.416Z,99803.13
2023-11-01T02:18:55.763Z,99797.84
2023-11-01T02:21:22.279Z,99805.63
2023-11-01T02:23:50.635Z,99808.25
2023-11-01T02:26:16.952Z,99797.84
2023-11-01T02:28:43.281Z,99800.47
2023-11-01T02:31:10.108Z,99809.88
2023-11-01T02:33:36.478Z,99807.28
2023-11-01T02:36:03.532Z,99803.00
2023-11-01T02:38:30.220Z,99812.50
2023-11-01T02:40:56.617Z,99828.06
2023-11-01T02:43:22.981Z,99816.00
2023-11-01T02:45:49.626Z,99803.94
2023-11-01T02:48:16.014Z,99792.69
2023-11-01T02:50:42.399Z,99799.44
2023-11-01T02:53:09.011Z,99796.81
2023-11-01T02:55:35.398Z,99802.94
2023-11-01T02:58:03.464Z,99801.97
2023-11-01T03:00:30.259Z,99804.63
2023-11-01T03:02:58.519Z,99809.78
2023-11-01T03:05:29.523Z,99813.50
2023-11-01T03:07:57.552Z,99797.94
2023-11-01T03:10:24.942Z,99796.22
2023-11-01T03:12:51.445Z,99803.97
2023-11-01T03:15:18.050Z,99807.44
2023-11-01T03:17:44.832Z,99786.81
2023-11-01T03:20:14.298Z,99773.03
2023-11-01T03:22:40.740Z,99767.06
2023-11-01T03:25:07.652Z,99760.38
2023-11-01T03:27:34.076Z,99736.97
2023-11-01T03:30:01.901Z,99730.97
2023-11-01T03:32:28.427Z,99723.13
2023-11-01T03:34:54.955Z,99735.16
2023-11-01T03:37:21.409Z,99739.44
2023-11-01T03:39:47.791Z,99750.63
2023-11-01T03:42:14.609Z,99757.50
2023-11-01T03:44:40.989Z,99754.84
2023-11-01T03:47:07.444Z,99772.06
2023-11-01T03:49:34.190Z,99775.50
2023-11-01T03:52:04.570Z,99786.66
2023-11-01T03:54:34.914Z,99785.91
2023-11-01T03:57:03.610Z,99782.44
2023-11-01T03:59:30.947Z,99778.13
2023-11-01T04:01:57.585Z,99783.34
2023-11-01T04:04:24.031Z,99785.00
2023-11-01T04:06:50.360Z,99785.91
2023-11-01T04:09:16.790Z,99777.22
2023-11-01T04:11:43.442Z,99775.50
2023-11-01T04:14:10.061Z,99784.25
2023-11-01T04:16:36.408Z,99767.81
2023-11-01T04:19:03.647Z,99768.69
2023-11-01T04:21:30.589Z,99771.25
2023-11-01T04:23:57.000Z,99773.00
2023-11-01T04:26:23.638Z,99771.22
2023-11-01T04:28:50.070Z,99767.72
2023-11-01T04:31:17.074Z,99766.09
2023-11-01T04:33:44.597Z,99766.09
2023-11-01T04:36:11.562Z,99764.31
2023-11-01T04:38:39.140Z,99764.34
2023-11-01T04:41:10.945Z,99774.72
2023-11-01T04:43:38.260Z,99765.97
2023-11-01T04:46:06.301Z,99762.63
2023-11-01T04:48:32.881Z,99764.31
2023-11-01T04:51:00.642Z,99751.34
2023-11-01T04:53:28.827Z,99760.13
2023-11-01T04:55:55.807Z,99760.88
2023-11-01T04:58:23.432Z,99759.28
2023-11-01T05:00:53.206Z,99765.34
2023-11-01T05:03:19.953Z,99765.31
2023-11-01T05:05:46.760Z,99769.69
2023-11-01T05:08:13.456Z,99762.69
2023-11-01T05:10:40.001Z,99766.13
2023-11-01T05:13:06.839Z,99762.69
2023-11-01T05:15:35.295Z,99769.63
2023-11-01T05:18:02.119Z,99774.81
2023-11-01T05:20:29.998Z,99771.31
2023-11-01T05:22:56.386Z,99768.75
2023-11-01T05:25:23.137Z,99774.81
2023-11-01T05:27:49.494Z,99777.31
2023-11-01T05:30:16.084Z,99782.44
2023-11-01T05:32:46.172Z,99773.91
2023-11-01T05:35:14.171Z,99779.97
2023-11-01T05:37:41.309Z,99786.88
2023-11-01T05:40:14.585Z,99785.25
2023-11-01T05:42:42.767Z,99780.09
2023-11-01T05:45:09.753Z,99792.19
2023-11-01T05:47:36.762Z,99792.94
2023-11-01T05:50:09.197Z,99782.53
2023-11-01T05:52:35.997Z,99790.41
2023-11-01T05:55:10.857Z,99801.63
2023-11-01T05:57:40.898Z,99775.72
2023-11-01T06:00:10.604Z,99773.06
2023-11-01T06:02:40.624Z,99766.22
2023-11-01T06:05:07.698Z,99776.59
2023-11-01T06:07:34.130Z,99767.94
2023-11-01T06:10:00.546Z,99766.06
2023-11-01T06:12:26.873Z,99767.03
2023-11-01T06:14:53.571Z,99758.47
2023-11-01T06:17:20.364Z,99743.81
2023-11-01T06:19:47.342Z,99746.53
2023-11-01T06:22:13.968Z,99741.34
2023-11-01T06:24:40.289Z,99725.88
2023-11-01T06:27:06.934Z,99711.16
2023-11-01T06:29:33.313Z,99704.25
2023-11-01T06:32:00.304Z,99695.66
2023-11-01T06:34:26.692Z,99685.22
2023-11-01T06:36:53.021Z,99690.44
2023-11-01T06:39:19.429Z,99691.25
2023-11-01T06:41:46.085Z,99683.50
2023-11-01T06:44:14.404Z,99671.38
2023-11-01T06:46:41.104Z,99669.81
2023-11-01T06:49:07.528Z,99668.09
2023-11-01T06:51:33.914Z,99652.63
2023-11-01T06:54:01.156Z,99645.63
2023-11-01T06:56:27.658Z,99641.25
2023-11-01T06:58:54.307Z,99644.81
2023-11-01T07:01:21.045Z,99637.22
2023-11-01T07:03:47.475Z,99631.91
2023-11-01T07:06:15.787Z,99621.50
2023-11-01T07:08:44.007Z,99622.44
2023-11-01T07:11:11.658Z,99612.97
2023-11-01T07:13:38.065Z,99606.22
2023-11-01T07:16:05.554Z,99592.22
2023-11-01T07:18:32.754Z,99579.25
2023-11-01T07:20:59.307Z,99577.53
2023-11-01T07:23:25.970Z,99574.00
2023-11-01T07:25:52.671Z,99571.38
2023-11-01T07:28:19.008Z,99569.69
2023-11-01T07:30:45.404Z,99567.22
2023-11-01T07:33:13.362Z,99555.06
2023-11-01T07:35:39.973Z,99551.53
2023-11-01T07:38:06.350Z,99539.44
2023-11-01T07:40:32.840Z,99546.25
2023-11-01T07:42:59.281Z,99542.09
2023-11-01T07:45:25.653Z,99549.06
2023-11-01T07:47:52.255Z,99550.63
2023-11-01T07:50:18.859Z,99542.84
2023-11-01T07:52:45.321Z,99547.31
2023-11-01T07:55:12.088Z,99549.00
2023-11-01T07:57:38.436Z,99540.34
2023-11-01T08:00:07.002Z,99528.00
2023-11-01T08:02:33.685Z,99537.56
2023-11-01T08:05:01.734Z,99521.06
2023-11-01T08:07:28.433Z,99520.16
2023-11-01T08:09:54.804Z,99522.97
2023-11-01T08:12:21.171Z,99513.25
2023-11-01T08:14:47.756Z,99514.88
2023-11-01T08:17:16.017Z,99514.09
2023-11-01T08:19:42.413Z,99517.72
2023-11-01T08:22:12.046Z,99509.94
2023-11-01T08:24:39.702Z,99500.22
2023-11-01T08:27:06.171Z,99503.69
2023-11-01T08:29:34.322Z,99501.84
2023-11-01T08:32:01.179Z,99492.16
2023-11-01T08:34:27.584Z,99493.84
2023-11-01T08:36:54.050Z,99500.75
2023-11-01T08:39:20.389Z,99507.84
2023-11-01T08:41:46.754Z,99510.19
2023-11-01T08:44:13.254Z,99503.09
2023-11-01T08:46:39.607Z,99486.50
2023-11-01T08:49:06.233Z,99484.47
2023-11-01T08:51:32.703Z,99478.72
2023-11-01T08:54:02.307Z,99481.94
2023-11-01T08:56:28.802Z,99484.63
2023-11-01T08:58:55.334Z,99485.16
2023-11-01T09:01:21.805Z,99486.06
2023-11-01T09:03:48.291Z,99476.22
2023-11-01T09:06:14.953Z,99484.84
2023-11-01T09:08:41.587Z,99483.00
2023-11-01T09:11:08.202Z,99483.78
2023-11-01T09:13:34.796Z,99486.44
2023-11-01T09:16:01.391Z,99480.47
2023-11-01T09:18:27.937Z,99478.31
2023-11-01T09:20:54.575Z,99480.00
2023-11-01T09:23:21.479Z,99476.16
2023-11-01T09:25:47.912Z,99474.94
2023-11-01T09:28:14.893Z,99480.13
2023-11-01T09:30:41.378Z,99478.44
2023-11-01T09:33:08.483Z,99477.50
2023-11-01T09:35:35.655Z,99480.84
2023-11-01T09:38:02.059Z,99466.00
2023-11-01T09:40:28.967Z,99466.59
2023-11-01T09:42:56.581Z,99465.72
2023-11-01T09:45:23.169Z,99479.84
2023-11-01T09:47:51.357Z,99474.53
2023-11-01T09:50:19.057Z,99469.13
2023-11-01T09:52:45.423Z,99462.78
2023-11-01T09:55:18.464Z,99452.09
2023-11-01T09:57:45.217Z,99460.09
2023-11-01T10:00:12.965Z,99456.69
2023-11-01T10:02:40.776Z,99458.16
2023-11-01T10:05:07.857Z,99442.28
2023-11-01T10:07:34.519Z,99448.44
2023-11-01T10:10:03.795Z,99436.09
2023-11-01T10:12:30.181Z,99433.31
2023-11-01T10:14:56.779Z,99427.03
2023-11-01T10:17:23.249Z,99429.28
2023-11-01T10:19:49.622Z,99423.22
2023-11-01T10:22:16.036Z,99420.72
2023-11-01T10:24:45.382Z,99419.41
2023-11-01T10:27:11.926Z,99424.34
2023-11-01T10:29:47.195Z,99432.31
2023-11-01T10:32:14.884Z,99437.25
2023-11-01T10:34:41.519Z,99433.03
2023-11-01T10:37:09.848Z,99433.78
2023-11-01T10:39:39.228Z,99431.03
2023-11-01T10:42:08.707Z,99428.00
2023-11-01T10:44:35.232Z,99426.22
2023-11-01T10:47:02.324Z,99420.59
2023-11-01T10:49:29.682Z,99418.91
2023-11-01T10:52:00.302Z,99413.31
2023-11-01T10:54:28.001Z,99418.41
2023-11-01T10:56:54.915Z,99407.56
2023-11-01T10:59:35.758Z,99419.00
2023-11-01T11:02:18.456Z,99416.50
2023-11-01T11:04:52.966Z,99415.59
2023-11-01T11:07:24.789Z,99407.66
2023-11-01T11:10:20.425Z,99403.09
2023-11-01T11:13:07.105Z,99395.31
2023-11-01T11:15:49.183Z,99379.03
2023-11-01T11:18:18.959Z,99376.31
2023-11-01T11:20:45.988Z,99376.31
2023-11-01T11:23:15.807Z,99368.81
2023-11-01T11:25:43.395Z,99372.75
2023-11-01T11:28:11.203Z,99367.00
2023-11-01T11:30:47.944Z,99365.84
2023-11-01T11:33:16.164Z,99367.53
2023-11-01T11:35:43.094Z,99369.38
2023-11-01T11:38:30.714Z,99372.84
2023-11-01T11:41:20.652Z,99368.25
2023-11-01T11:44:07.866Z,99372.72
2023-11-01T11:46:41.159Z,99364.47
2023-11-01T11:49:08.909Z,99363.97
2023-11-01T11:51:36.993Z,99355.84
2023-11-01T11:54:11.260Z,99356.44
2023-11-01T11:56:38.115Z,99354.13
2023-11-01T11:59:05.017Z,99354.78
2023-11-01T12:01:31.520Z,99359.75
2023-11-01T12:03:59.621Z,99352.13
2023-11-01T12:06:27.874Z,99353.22
2023-11-01T12:08:54.485Z,99325.28
2023-11-01T12:11:29.440Z,99317.88
2023-11-01T12:13:55.964Z,99317.88
2023-11-01T12:16:29.857Z,99315.13
2023-11-01T12:19:18.026Z,99304.63
2023-11-01T12:21:50.641Z,99298.41
2023-11-01T12:24:18.956Z,99283.69
2023-11-01T12:27:05.073Z,99282.59
2023-11-01T12:29:35.004Z,99264.38
2023-11-01T12:32:06.830Z,99251.47
2023-11-01T12:34:34.808Z,99236.69
2023-11-01T12:37:15.604Z,99217.44
2023-11-01T12:39:59.391Z,99198.81
2023-11-01T12:42:27.830Z,99181.44
2023-11-01T12:44:55.712Z,99170.72
2023-11-01T12:47:24.452Z,99149.22
2023-11-01T12:49:53.040Z,99134.28
2023-11-01T12:52:19.896Z,99116.75
2023-11-01T12:54:46.952Z,99107.41
2023-11-01T12:57:14.492Z,99086.34
2023-11-01T12:59:44.401Z,99076.50
2023-11-01T13:02:10.801Z,99054.91
2023-11-01T13:04:38.226Z,99048.75
2023-11-01T13:07:05.689Z,99025.88
2023-11-01T13:09:33.142Z,99010.44
2023-11-01T13:11:59.557Z,98994.94
2023-11-01T13:14:25.954Z,98978.22
2023-11-01T13:16:52.855Z,98956.25
2023-11-01T13:19:19.402Z,98940.63
2023-11-01T13:21:45.757Z,98931.97
2023-11-01T13:24:12.216Z,98918.13
2023-11-01T13:26:39.252Z,98904.19
2023-11-01T13:29:05.798Z,98892.22
2023-11-01T13:31:32.454Z,98876.03
2023-11-01T13:33:58.990Z,98857.00
2023-11-01T13:36:25.345Z,98849.69
2023-11-01T13:38:52.796Z,98840.94
2023-11-01T13:41:19.216Z,98836.03
2023-11-01T13:43:45.799Z,98819.19
2023-11-01T13:46:14.309Z,98804.31
2023-11-01T13:48:42.193Z,98794.31
2023-11-01T13:51:10.213Z,98791.31
2023-11-01T13:53:38.417Z,98783.03
2023-11-01T13:56:08.705Z,98775.84
2023-11-01T13:58:38.619Z,98761.66
2023-11-01T14:01:05.137Z,98763.16
2023-11-01T14:03:33.877Z,98756.31
2023-11-01T14:06:00.744Z,98749.19
2023-11-01T14:08:27.212Z,98747.91
2023-11-01T14:10:54.324Z,98744.41
2023-11-01T14:13:20.621Z,98743.41
2023-11-01T14:15:47.747Z,98737.78
2023-11-01T14:18:20.269Z,98743.16
2023-11-01T14:20:51.606Z,98734.13
2023-11-01T14:23:19.260Z,98739.00
2023-11-01T14:25:46.404Z,98733.84
2023-11-01T14:28:14.401Z,98732.00
2023-11-01T14:30:42.170Z,98729.25
2023-11-01T14:33:09.804Z,98728.56
2023-11-01T14:35:36.548Z,98719.25
2023-11-01T14:38:03.907Z,98717.03
2023-11-01T14:40:31.324Z,98711.66
2023-11-01T14:42:58.875Z,98707.63
2023-11-01T14:45:27.626Z,98708.56
2023-11-01T14:47:55.645Z,98702.56
2023-11-01T14:50:22.019Z,98710.41
2023-11-01T14:52:48.410Z,98705.28
2023-11-01T14:55:14.960Z,98710.22
2023-11-01T14:57:41.297Z,98702.28
2023-11-01T15:00:08.766Z,98712.00
2023-11-01T15:02:36.566Z,98708.81
2023-11-01T15:05:05.278Z,98702.50
2023-11-01T15:07:31.998Z,98714.03
2023-11-01T15:09:59.075Z,98705.78
2023-11-01T15:12:26.771Z,98712.16
2023-11-01T15:14:53.505Z,98705.28
2023-11-01T15:17:20.015Z,98706.22
2023-11-01T15:19:48.759Z,98711.66
2023-11-01T15:22:16.155Z,98709.38
2023-11-01T15:24:50.201Z,98700.94
2023-11-01T15:27:17.914Z,98702.88
2023-11-01T15:29:44.332Z,98705.50
2023-11-01T15:32:11.209Z,98701.28
2023-11-01T15:34:37.863Z,98692.72
2023-11-01T15:37:05.089Z,98692.13
2023-11-01T15:39:31.530Z,98686.56
2023-11-01T15:41:58.036Z,98682.28
2023-11-01T15:44:24.400Z,98677.31
2023-11-01T15:46:51.665Z,98662.34
2023-11-01T15:49:18.162Z,98669.38
2023-11-01T15:51:44.567Z,98658.81
2023-11-01T15:54:12.599Z,98660.16
2023-11-01T15:56:39.990Z,98661.44
2023-11-01T15:59:07.473Z,98663.09
2023-11-01T16:01:34.196Z,98664.88
2023-11-01T16:04:01.032Z,98666.78
2023-11-01T16:06:27.638Z,98683.53
2023-11-01T16:08:54.043Z,98677.84
2023-11-01T16:11:20.445Z,98679.72
2023-11-01T16:13:49.155Z,98659.38
2023-11-01T16:16:16.914Z,98671.59
2023-11-01T16:18:43.803Z,98672.06
2023-11-01T16:21:10.912Z,98665.16
2023-11-01T16:23:37.559Z,98652.22
2023-11-01T16:26:04.377Z,98653.06
2023-11-01T16:28:31.191Z,98636.81
2023-11-01T16:30:58.253Z,98634.31
2023-11-01T16:33:24.674Z,98625.22
2023-11-01T16:35:51.398Z,98613.19
2023-11-01T16:38:18.053Z,98619.41
2023-11-01T16:40:45.033Z,98615.97
2023-11-01T16:43:11.682Z,98607.06
2023-11-01T16:45:38.369Z,98604.38
2023-11-01T16:48:05.958Z,98600.00
2023-11-01T16:50:32.491Z,98590.50
2023-11-01T16:52:58.882Z,98578.22
2023-11-01T16:55:25.497Z,98565.88
2023-11-01T16:57:51.955Z,98567.31
2023-11-01T17:00:18.759Z,98557.06
2023-11-01T17:02:50.470Z,98553.69
2023-11-01T17:05:17.698Z,98554.59
2023-11-01T17:07:44.165Z,98547.53
2023-11-01T17:10:10.628Z,98552.56
2023-11-01T17:12:37.229Z,98552.22
2023-11-01T17:15:05.432Z,98548.13
2023-11-01T17:17:32.141Z,98542.66
2023-11-01T17:19:58.899Z,98548.88
2023-11-01T17:22:50.957Z,98553.16
2023-11-01T17:25:35.944Z,98562.75
2023-11-01T17:28:02.377Z,98563.69
2023-11-01T17:30:29.443Z,98570.66
2023-11-01T17:32:55.978Z,98568.81
2023-11-01T17:35:22.382Z,98563.44
2023-11-01T17:37:51.289Z,98558.22
2023-11-01T17:40:18.533Z,98557.22
2023-11-01T17:42:45.128Z,98565.25
2023-11-01T17:45:13.846Z,98571.41
2023-11-01T17:47:42.597Z,98582.78
2023-11-01T17:50:11.283Z,98590.34
2023-11-01T17:52:43.613Z,98594.53
2023-11-01T17:55:15.010Z,98608.75
2023-11-01T17:57:42.151Z,98616.41
2023-11-01T18:00:10.105Z,98625.31
2023-11-01T18:03:19.252Z,98637.09
2023-11-01T18:05:48.584Z,98641.97
2023-11-01T18:08:18.185Z,98653.22
2023-11-01T18:10:48.908Z,98658.88
2023-11-01T18:13:20.038Z,98668.22
2023-11-01T18:15:47.825Z,98677.78
2023-11-01T18:18:57.190Z,98688.44
2023-11-01T18:21:28.725Z,98701.75
2023-11-01T18:23:57.032Z,98718.38
2023-11-01T18:26:24.437Z,98722.97
2023-11-01T18:28:52.477Z,98726.34
2023-11-01T18:31:20.689Z,98726.19
2023-11-01T18:34:07.848Z,98731.47
2023-11-01T18:36:38.240Z,98749.56
2023-11-01T18:39:05.059Z,98755.78
2023-11-01T18:41:36.702Z,98761.06
2023-11-01T18:44:28.885Z,98773.41
2023-11-01T18:46:57.566Z,98772.50
2023-11-01T18:49:52.021Z,98785.50
2023-11-01T18:52:19.520Z,98789.84
2023-11-01T18:54:48.079Z,98789.84
2023-11-01T18:57:33.616Z,98791.34
2023-11-01T19:00:00.774Z,98808.97
2023-11-01T19:02:27.177Z,98817.72
2023-11-01T19:04:57.225Z,98834.53
2023-11-01T19:07:24.359Z,98838.78
2023-11-01T19:09:51.930Z,98843.69
2023-11-01T19:12:27.925Z,98857.66
2023-11-01T19:14:54.936Z,98872.50
2023-11-01T19:17:24.625Z,98878.19
2023-11-01T19:19:51.036Z,98891.47
2023-11-01T19:22:17.816Z,98909.09
2023-11-01T19:24:44.406Z,98915.19
2023-11-01T19:27:18.295Z,98924.63
2023-11-01T19:29:50.281Z,98928.22
2023-11-01T19:32:16.710Z,98927.47
2023-11-01T19:34:43.091Z,98928.94
2023-11-01T19:37:10.093Z,98927.47
2023-11-01T19:39:36.438Z,98931.56
2023-11-01T19:42:03.066Z,98939.56
2023-11-01T19:44:29.608Z,98952.72
2023-11-01T19:46:56.238Z,98948.50
2023-11-01T19:49:22.948Z,98951.03
2023-11-01T19:51:51.936Z,98962.44
2023-11-01T19:54:19.064Z,98958.38
2023-11-01T19:56:45.761Z,98953.94
2023-11-01T19:59:12.334Z,98958.47
2023-11-01T20:01:38.884Z,98957.53
2023-11-01T20:04:05.615Z,98964.66
2023-11-01T20:06:32.003Z,98956.84
2023-11-01T20:08:59.761Z,98958.22
2023-11-01T20:11:26.305Z,98974.63
2023-11-01T20:13:53.292Z,98976.41
2023-11-01T20:16:25.621Z,98977.09
2023-11-01T20:18:56.950Z,98984.22
2023-11-01T20:21:23.602Z,98996.25
2023-11-01T20:23:50.312Z,98995.63
2023-11-01T20:26:16.704Z,98999.34
2023-11-01T20:28:43.068Z,98996.81
2023-11-01T20:31:10.833Z,98991.44
2023-11-01T20:33:37.522Z,98992.25
2023-11-01T20:36:04.372Z,98995.69
2023-11-01T20:38:31.020Z,99002.47
2023-11-01T20:40:57.372Z,98997.31
2023-11-01T20:43:23.757Z,99006.41
2023-11-01T20:45:50.089Z,99016.94
2023-11-01T20:48:16.829Z,99022.25
2023-11-01T20:50:48.189Z,99021.53
2023-11-01T20:53:14.674Z,99020.44
2023-11-01T20:55:41.067Z,99028.28
2023-11-01T20:58:08.496Z,99034.19
2023-11-01T21:00:35.065Z,99035.84
2023-11-01T21:03:01.592Z,99037.94
2023-11-01T21:05:28.130Z,99034.72
2023-11-01T21:07:55.360Z,99028.72
2023-11-01T21:10:22.553Z,99031.31
2023-11-01T21:12:49.029Z,99025.81
2023-11-01T21:15:15.549Z,99025.97
2023-11-01T21:17:42.111Z,99030.25
2023-11-01T21:20:10.775Z,99026.09
2023-11-01T21:22:40.176Z,99015.81
2023-11-01T21:25:07.126Z,99008.50
2023-11-01T21:27:34.001Z,99018.09
2023-11-01T21:30:01.604Z,99026.75
2023-11-01T21:32:28.214Z,99028.06
2023-11-01T21:34:54.650Z,99020.25
2023-11-01T21:37:21.169Z,99021.19
2023-11-01T21:39:47.691Z,99020.41
2023-11-01T21:42:14.467Z,99007.03
2023-11-01T21:44:41.576Z,99006.38
2023-11-01T21:47:10.748Z,99008.78
2023-11-01T21:49:37.237Z,99009.63
2023-11-01T21:52:20.655Z,99010.28
2023-11-01T21:54:48.471Z,99000.00
2023-11-01T21:57:27.742Z,98994.00
2023-11-01T22:00:01.511Z,98992.72
2023-11-01T22:02:49.594Z,98987.50
2023-11-01T22:05:18.123Z,98988.53
2023-11-01T22:07:45.056Z,98983.03
2023-11-01T22:10:16.602Z,98987.22
2023-11-01T22:12:48.274Z,98987.94
2023-11-01T22:15:24.449Z,98986.09
2023-11-01T22:17:51.586Z,98983.28
2023-11-01T22:20:23.618Z,98986.69
2023-11-01T22:22:51.069Z,98995.97
2023-11-01T22:25:35.686Z,98995.16
2023-11-01T22:28:04.503Z,98991.16
2023-11-01T22:30:33.849Z,98993.88
2023-11-01T22:33:08.958Z,98995.69
2023-11-01T22:35:41.857Z,98985.41
2023-11-01T22:38:09.664Z,98986.25
2023-11-01T22:40:36.228Z,98974.16
2023-11-01T22:43:02.628Z,98983.63
2023-11-01T22:45:29.218Z,98981.13
2023-11-01T22:47:55.740Z,98976.81
2023-11-01T22:50:22.213Z,98975.13
2023-11-01T22:52:48.543Z,98972.19
2023-11-01T22:55:15.016Z,98985.25
2023-11-01T22:57:41.619Z,98993.16
2023-11-01T23:00:11.763Z,98993.03
2023-11-01T23:02:38.324Z,98992.38
2023-11-01T23:05:05.132Z,98993.50
2023-11-01T23:07:31.534Z,98992.38
2023-11-01T23:09:58.554Z,98990.31
2023-11-01T23:12:26.137Z,98988.56
2023-11-01T23:14:52.635Z,98988.66
2023-11-01T23:17:20.600Z,98979.34
2023-11-01T23:19:48.302Z,98987.13
2023-11-01T23:22:14.970Z,98972.78
2023-11-01T23:24:42.589Z,98979.22
2023-11-01T23:27:09.928Z,98979.63
2023-11-01T23:29:40.123Z,98970.97
2023-11-01T23:32:12.494Z,98969.50
2023-11-01T23:34:46.141Z,98965.53
2023-11-01T23:37:17.642Z,98967.41
2023-11-01T23:39:45.077Z,98964.16
2023-11-01T23:42:15.661Z,98966.31
2023-11-01T23:44:42.230Z,98962.09
2023-11-01T23:47:10.036Z,98963.09
2023-11-01T23:49:58.503Z,98959.13
2023-11-01T23:52:28.821Z,98949.44
2023-11-01T23:54:56.488Z,98947.81
2023-11-01T23:57:24.790Z,98943.59
2023-11-01T23:59:58.181Z,98938.25
